sensor_id;sensor_type;location;lat;lon;timestamp;P1;durP1;ratioP1;P2;durP2;ratioP2
21611;SDS011;47005;52.292;13.452;2023-01-24T00:02:01;15.77;;;10.10;;
21611;SDS011;47005;52.292;13.452;2023-01-24T00:04:26;16.70;;;10.37;;
21611;SDS011;47005;52.292;13.452;2023-01-24T00:06:52;14.50;;;9.23;;
21611;SDS011;47005;52.292;13.452;2023-01-24T00:09:18;14.73;;;9.30;;
21611;SDS011;47005;52.292;13.452;2023-01-24T00:11:43;14.53;;;9.50;;
21611;SDS011;47005;52.292;13.452;2023-01-24T00:14:09;12.10;;;8.57;;
21611;SDS011;47005;52.292;13.452;2023-01-24T00:16:35;14.57;;;8.83;;
21611;SDS011;47005;52.292;13.452;2023-01-24T00:19:00;14.43;;;9.57;;
21611;SDS011;47005;52.292;13.452;2023-01-24T00:21:26;16.23;;;10.27;;
21611;SDS011;47005;52.292;13.452;2023-01-24T00:23:52;17.90;;;10.63;;
21611;SDS011;47005;52.292;13.452;2023-01-24T00:26:19;15.70;;;8.63;;
21611;SDS011;47005;52.292;13.452;2023-01-24T00:28:45;15.57;;;8.30;;
21611;SDS011;47005;52.292;13.452;2023-01-24T00:31:12;14.17;;;9.97;;
21611;SDS011;47005;52.292;13.452;2023-01-24T00:33:38;14.57;;;9.80;;
21611;SDS011;47005;52.292;13.452;2023-01-24T00:36:04;16.43;;;9.67;;
21611;SDS011;47005;52.292;13.452;2023-01-24T00:38:30;13.70;;;8.70;;
21611;SDS011;47005;52.292;13.452;2023-01-24T00:40:56;15.37;;;9.00;;
21611;SDS011;47005;52.292;13.452;2023-01-24T00:43:22;16.67;;;10.27;;
21611;SDS011;47005;52.292;13.452;2023-01-24T00:45:47;15.13;;;9.43;;
21611;SDS011;47005;52.292;13.452;2023-01-24T00:48:13;13.63;;;8.77;;
21611;SDS011;47005;52.292;13.452;2023-01-24T00:50:39;12.93;;;7.83;;
21611;SDS011;47005;52.292;13.452;2023-01-24T00:53:05;13.40;;;8.73;;
21611;SDS011;47005;52.292;13.452;2023-01-24T00:55:31;16.00;;;10.50;;
21611;SDS011;47005;52.292;13.452;2023-01-24T00:57:57;14.83;;;9.40;;
21611;SDS011;47005;52.292;13.452;2023-01-24T01:00:23;15.87;;;9.30;;
21611;SDS011;47005;52.292;13.452;2023-01-24T01:02:49;16.67;;;10.27;;
21611;SDS011;47005;52.292;13.452;2023-01-24T01:05:16;15.90;;;10.23;;
21611;SDS011;47005;52.292;13.452;2023-01-24T01:07:42;19.77;;;10.47;;
21611;SDS011;47005;52.292;13.452;2023-01-24T01:10:08;19.00;;;9.83;;
21611;SDS011;47005;52.292;13.452;2023-01-24T01:12:34;16.87;;;9.50;;
21611;SDS011;47005;52.292;13.452;2023-01-24T01:15:00;17.17;;;10.50;;
21611;SDS011;47005;52.292;13.452;2023-01-24T01:17:26;17.50;;;10.00;;
21611;SDS011;47005;52.292;13.452;2023-01-24T01:19:52;17.47;;;10.20;;
21611;SDS011;47005;52.292;13.452;2023-01-24T01:22:18;16.23;;;9.23;;
21611;SDS011;47005;52.292;13.452;2023-01-24T01:24:45;19.17;;;9.60;;
21611;SDS011;47005;52.292;13.452;2023-01-24T01:27:10;17.23;;;10.03;;
21611;SDS011;47005;52.292;13.452;2023-01-24T01:29:36;15.93;;;10.27;;
21611;SDS011;47005;52.292;13.452;2023-01-24T01:32:02;15.07;;;9.03;;
21611;SDS011;47005;52.292;13.452;2023-01-24T01:34:27;15.40;;;8.60;;
21611;SDS011;47005;52.292;13.452;2023-01-24T01:36:53;16.57;;;9.93;;
21611;SDS011;47005;52.292;13.452;2023-01-24T01:39:19;20.90;;;10.23;;
21611;SDS011;47005;52.292;13.452;2023-01-24T01:41:44;17.90;;;10.03;;
21611;SDS011;47005;52.292;13.452;2023-01-24T01:44:24;18.30;;;10.10;;
21611;SDS011;47005;52.292;13.452;2023-01-24T01:52:40;15.63;;;9.67;;
21611;SDS011;47005;52.292;13.452;2023-01-24T01:55:15;18.50;;;10.97;;
21611;SDS011;47005;52.292;13.452;2023-01-24T01:57:43;19.80;;;10.50;;
21611;SDS011;47005;52.292;13.452;2023-01-24T02:00:13;16.43;;;10.03;;
21611;SDS011;47005;52.292;13.452;2023-01-24T02:02:46;23.77;;;11.80;;
21611;SDS011;47005;52.292;13.452;2023-01-24T02:05:15;19.10;;;10.50;;
21611;SDS011;47005;52.292;13.452;2023-01-24T02:07:45;18.20;;;11.03;;
21611;SDS011;47005;52.292;13.452;2023-01-24T02:10:16;20.40;;;12.20;;
21611;SDS011;47005;52.292;13.452;2023-01-24T02:12:45;24.33;;;11.50;;
21611;SDS011;47005;52.292;13.452;2023-01-24T02:15:16;22.93;;;11.80;;
21611;SDS011;47005;52.292;13.452;2023-01-24T02:18:02;21.77;;;11.07;;
21611;SDS011;47005;52.292;13.452;2023-01-24T02:20:47;22.20;;;11.83;;
21611;SDS011;47005;52.292;13.452;2023-01-24T02:25:44;20.30;;;11.53;;
21611;SDS011;47005;52.292;13.452;2023-01-24T02:28:23;23.03;;;12.43;;
21611;SDS011;47005;52.292;13.452;2023-01-24T02:30:48;23.00;;;12.03;;
21611;SDS011;47005;52.292;13.452;2023-01-24T02:33:16;22.53;;;11.07;;
21611;SDS011;47005;52.292;13.452;2023-01-24T02:35:44;24.40;;;12.33;;
21611;SDS011;47005;52.292;13.452;2023-01-24T02:38:16;19.03;;;11.73;;
21611;SDS011;47005;52.292;13.452;2023-01-24T02:40:50;23.53;;;12.27;;
21611;SDS011;47005;52.292;13.452;2023-01-24T02:43:19;20.00;;;12.27;;
21611;SDS011;47005;52.292;13.452;2023-01-24T02:45:48;21.87;;;13.10;;
21611;SDS011;47005;52.292;13.452;2023-01-24T02:48:14;24.03;;;12.40;;
21611;SDS011;47005;52.292;13.452;2023-01-24T02:50:39;23.90;;;13.13;;
21611;SDS011;47005;52.292;13.452;2023-01-24T02:53:23;18.17;;;11.80;;
21611;SDS011;47005;52.292;13.452;2023-01-24T02:55:56;19.83;;;10.70;;
21611;SDS011;47005;52.292;13.452;2023-01-24T02:58:44;24.60;;;13.13;;
21611;SDS011;47005;52.292;13.452;2023-01-24T03:01:10;20.87;;;12.10;;
21611;SDS011;47005;52.292;13.452;2023-01-24T03:03:36;17.13;;;12.23;;
21611;SDS011;47005;52.292;13.452;2023-01-24T03:06:02;19.10;;;11.10;;
21611;SDS011;47005;52.292;13.452;2023-01-24T03:08:30;21.27;;;11.47;;
21611;SDS011;47005;52.292;13.452;2023-01-24T03:10:58;16.60;;;12.00;;
21611;SDS011;47005;52.292;13.452;2023-01-24T03:13:23;14.13;;;10.27;;
21611;SDS011;47005;52.292;13.452;2023-01-24T03:16:08;18.90;;;11.13;;
21611;SDS011;47005;52.292;13.452;2023-01-24T03:18:53;14.13;;;10.03;;
21611;SDS011;47005;52.292;13.452;2023-01-24T03:21:37;17.13;;;9.83;;
21611;SDS011;47005;52.292;13.452;2023-01-24T03:24:22;16.17;;;10.60;;
21611;SDS011;47005;52.292;13.452;2023-01-24T03:27:06;15.37;;;9.43;;
21611;SDS011;47005;52.292;13.452;2023-01-24T03:29:51;13.30;;;9.43;;
21611;SDS011;47005;52.292;13.452;2023-01-24T03:32:36;19.57;;;9.50;;
21611;SDS011;47005;52.292;13.452;2023-01-24T03:35:20;20.50;;;10.37;;
21611;SDS011;47005;52.292;13.452;2023-01-24T03:37:46;18.90;;;9.37;;
21611;SDS011;47005;52.292;13.452;2023-01-24T03:40:30;18.80;;;10.13;;
21611;SDS011;47005;52.292;13.452;2023-01-24T03:42:56;14.27;;;9.63;;
21611;SDS011;47005;52.292;13.452;2023-01-24T03:45:26;17.03;;;9.00;;
21611;SDS011;47005;52.292;13.452;2023-01-24T03:47:58;14.27;;;9.07;;
21611;SDS011;47005;52.292;13.452;2023-01-24T03:50:29;14.90;;;9.67;;
21611;SDS011;47005;52.292;13.452;2023-01-24T03:53:15;20.00;;;9.70;;
21611;SDS011;47005;52.292;13.452;2023-01-24T03:55:42;15.50;;;9.30;;
21611;SDS011;47005;52.292;13.452;2023-01-24T03:58:09;17.33;;;10.13;;
21611;SDS011;47005;52.292;13.452;2023-01-24T04:00:35;17.37;;;9.70;;
21611;SDS011;47005;52.292;13.452;2023-01-24T04:03:02;15.20;;;9.10;;
21611;SDS011;47005;52.292;13.452;2023-01-24T04:05:28;17.13;;;9.90;;
21611;SDS011;47005;52.292;13.452;2023-01-24T04:07:54;14.80;;;9.60;;
21611;SDS011;47005;52.292;13.452;2023-01-24T04:10:20;14.83;;;9.20;;
21611;SDS011;47005;52.292;13.452;2023-01-24T04:12:46;14.83;;;8.53;;
21611;SDS011;47005;52.292;13.452;2023-01-24T04:15:19;14.97;;;9.93;;
21611;SDS011;47005;52.292;13.452;2023-01-24T04:17:49;16.63;;;9.93;;
21611;SDS011;47005;52.292;13.452;2023-01-24T04:20:15;15.13;;;9.73;;
21611;SDS011;47005;52.292;13.452;2023-01-24T04:22:41;15.43;;;9.07;;
21611;SDS011;47005;52.292;13.452;2023-01-24T04:25:08;16.17;;;9.57;;
21611;SDS011;47005;52.292;13.452;2023-01-24T04:27:34;18.27;;;9.93;;
21611;SDS011;47005;52.292;13.452;2023-01-24T04:30:01;15.13;;;9.80;;
21611;SDS011;47005;52.292;13.452;2023-01-24T04:32:31;14.67;;;9.27;;
21611;SDS011;47005;52.292;13.452;2023-01-24T04:34:56;22.03;;;10.60;;
21611;SDS011;47005;52.292;13.452;2023-01-24T04:37:22;18.47;;;10.17;;
21611;SDS011;47005;52.292;13.452;2023-01-24T04:39:48;17.27;;;9.97;;
21611;SDS011;47005;52.292;13.452;2023-01-24T04:42:13;15.70;;;10.93;;
21611;SDS011;47005;52.292;13.452;2023-01-24T04:44:39;17.27;;;10.67;;
21611;SDS011;47005;52.292;13.452;2023-01-24T04:47:04;20.07;;;10.63;;
21611;SDS011;47005;52.292;13.452;2023-01-24T04:49:30;19.87;;;12.40;;
21611;SDS011;47005;52.292;13.452;2023-01-24T04:51:56;17.73;;;10.80;;
21611;SDS011;47005;52.292;13.452;2023-01-24T04:54:21;16.17;;;10.50;;
21611;SDS011;47005;52.292;13.452;2023-01-24T04:56:47;16.40;;;10.63;;
21611;SDS011;47005;52.292;13.452;2023-01-24T04:59:13;16.60;;;10.37;;
21611;SDS011;47005;52.292;13.452;2023-01-24T05:01:39;18.93;;;10.53;;
21611;SDS011;47005;52.292;13.452;2023-01-24T05:04:04;19.73;;;10.57;;
21611;SDS011;47005;52.292;13.452;2023-01-24T05:06:31;18.20;;;9.67;;
21611;SDS011;47005;52.292;13.452;2023-01-24T05:08:57;14.40;;;9.77;;
21611;SDS011;47005;52.292;13.452;2023-01-24T05:11:24;20.53;;;10.97;;
21611;SDS011;47005;52.292;13.452;2023-01-24T05:13:50;21.00;;;10.47;;
21611;SDS011;47005;52.292;13.452;2023-01-24T05:16:15;18.67;;;10.87;;
21611;SDS011;47005;52.292;13.452;2023-01-24T05:18:41;17.03;;;10.63;;
21611;SDS011;47005;52.292;13.452;2023-01-24T05:21:14;16.97;;;10.30;;
21611;SDS011;47005;52.292;13.452;2023-01-24T05:23:41;15.63;;;10.00;;
21611;SDS011;47005;52.292;13.452;2023-01-24T05:26:08;13.27;;;8.97;;
21611;SDS011;47005;52.292;13.452;2023-01-24T05:28:35;16.80;;;9.67;;
21611;SDS011;47005;52.292;13.452;2023-01-24T05:31:01;16.27;;;9.13;;
21611;SDS011;47005;52.292;13.452;2023-01-24T05:33:29;14.60;;;9.03;;
21611;SDS011;47005;52.292;13.452;2023-01-24T05:35:59;19.37;;;10.50;;
21611;SDS011;47005;52.292;13.452;2023-01-24T05:38:28;21.07;;;10.07;;
21611;SDS011;47005;52.292;13.452;2023-01-24T05:40:58;15.27;;;10.37;;
21611;SDS011;47005;52.292;13.452;2023-01-24T05:43:25;20.60;;;11.20;;
21611;SDS011;47005;52.292;13.452;2023-01-24T05:45:50;16.33;;;9.63;;
21611;SDS011;47005;52.292;13.452;2023-01-24T05:48:16;18.83;;;9.93;;
21611;SDS011;47005;52.292;13.452;2023-01-24T05:50:41;16.47;;;9.83;;
21611;SDS011;47005;52.292;13.452;2023-01-24T05:53:07;15.00;;;10.07;;
21611;SDS011;47005;52.292;13.452;2023-01-24T05:55:33;17.90;;;11.53;;
21611;SDS011;47005;52.292;13.452;2023-01-24T05:57:59;20.27;;;11.10;;
21611;SDS011;47005;52.292;13.452;2023-01-24T06:00:25;20.30;;;10.27;;
21611;SDS011;47005;52.292;13.452;2023-01-24T06:02:51;19.93;;;11.63;;
21611;SDS011;47005;52.292;13.452;2023-01-24T06:05:17;22.97;;;11.10;;
21611;SDS011;47005;52.292;13.452;2023-01-24T06:07:43;17.20;;;11.37;;
21611;SDS011;47005;52.292;13.452;2023-01-24T06:10:09;16.10;;;10.57;;
21611;SDS011;47005;52.292;13.452;2023-01-24T06:12:34;21.50;;;11.90;;
21611;SDS011;47005;52.292;13.452;2023-01-24T06:15:00;20.53;;;10.67;;
21611;SDS011;47005;52.292;13.452;2023-01-24T06:17:26;21.73;;;12.63;;
21611;SDS011;47005;52.292;13.452;2023-01-24T06:19:51;16.03;;;10.33;;
21611;SDS011;47005;52.292;13.452;2023-01-24T06:25:12;17.87;;;10.73;;
21611;SDS011;47005;52.292;13.452;2023-01-24T06:27:44;17.53;;;11.80;;
21611;SDS011;47005;52.292;13.452;2023-01-24T06:30:11;22.90;;;11.13;;
21611;SDS011;47005;52.292;13.452;2023-01-24T06:32:46;22.67;;;11.90;;
21611;SDS011;47005;52.292;13.452;2023-01-24T06:35:36;23.77;;;11.33;;
21611;SDS011;47005;52.292;13.452;2023-01-24T06:38:17;21.93;;;12.80;;
21611;SDS011;47005;52.292;13.452;2023-01-24T06:40:45;22.53;;;11.67;;
21611;SDS011;47005;52.292;13.452;2023-01-24T06:43:11;32.87;;;13.67;;
21611;SDS011;47005;52.292;13.452;2023-01-24T06:45:36;32.43;;;14.87;;
21611;SDS011;47005;52.292;13.452;2023-01-24T06:48:02;25.93;;;12.47;;
21611;SDS011;47005;52.292;13.452;2023-01-24T06:50:28;16.80;;;10.13;;
21611;SDS011;47005;52.292;13.452;2023-01-24T06:52:56;22.23;;;10.87;;
21611;SDS011;47005;52.292;13.452;2023-01-24T06:55:22;22.90;;;10.53;;
21611;SDS011;47005;52.292;13.452;2023-01-24T06:57:55;28.37;;;11.57;;
21611;SDS011;47005;52.292;13.452;2023-01-24T07:00:21;23.03;;;11.97;;
21611;SDS011;47005;52.292;13.452;2023-01-24T07:02:47;23.23;;;12.50;;
21611;SDS011;47005;52.292;13.452;2023-01-24T07:05:13;23.37;;;12.23;;
21611;SDS011;47005;52.292;13.452;2023-01-24T07:07:38;28.03;;;13.23;;
21611;SDS011;47005;52.292;13.452;2023-01-24T07:10:05;27.47;;;12.13;;
21611;SDS011;47005;52.292;13.452;2023-01-24T07:12:31;25.53;;;12.63;;
21611;SDS011;47005;52.292;13.452;2023-01-24T07:14:57;22.17;;;12.53;;
21611;SDS011;47005;52.292;13.452;2023-01-24T07:17:22;22.00;;;12.93;;
21611;SDS011;47005;52.292;13.452;2023-01-24T07:19:48;31.07;;;15.63;;
21611;SDS011;47005;52.292;13.452;2023-01-24T07:22:14;24.73;;;14.33;;
21611;SDS011;47005;52.292;13.452;2023-01-24T07:24:40;26.57;;;13.73;;
21611;SDS011;47005;52.292;13.452;2023-01-24T07:27:07;28.30;;;14.10;;
21611;SDS011;47005;52.292;13.452;2023-01-24T07:29:33;26.17;;;15.13;;
21611;SDS011;47005;52.292;13.452;2023-01-24T07:31:59;28.23;;;13.23;;
21611;SDS011;47005;52.292;13.452;2023-01-24T07:34:24;29.50;;;14.03;;
21611;SDS011;47005;52.292;13.452;2023-01-24T07:36:50;26.83;;;13.27;;
21611;SDS011;47005;52.292;13.452;2023-01-24T07:39:16;29.97;;;15.40;;
21611;SDS011;47005;52.292;13.452;2023-01-24T07:41:41;26.40;;;13.90;;
21611;SDS011;47005;52.292;13.452;2023-01-24T07:44:08;36.23;;;13.70;;
21611;SDS011;47005;52.292;13.452;2023-01-24T07:46:35;30.77;;;14.53;;
21611;SDS011;47005;52.292;13.452;2023-01-24T07:49:01;32.70;;;13.67;;
21611;SDS011;47005;52.292;13.452;2023-01-24T07:51:27;27.10;;;14.70;;
21611;SDS011;47005;52.292;13.452;2023-01-24T07:53:53;32.80;;;14.77;;
21611;SDS011;47005;52.292;13.452;2023-01-24T07:56:19;39.40;;;20.47;;
21611;SDS011;47005;52.292;13.452;2023-01-24T07:58:45;37.73;;;18.03;;
21611;SDS011;47005;52.292;13.452;2023-01-24T08:01:17;31.80;;;16.43;;
21611;SDS011;47005;52.292;13.452;2023-01-24T08:03:44;34.80;;;14.67;;
21611;SDS011;47005;52.292;13.452;2023-01-24T08:06:10;38.47;;;15.93;;
21611;SDS011;47005;52.292;13.452;2023-01-24T08:08:35;43.73;;;18.17;;
21611;SDS011;47005;52.292;13.452;2023-01-24T08:11:01;31.90;;;16.40;;
21611;SDS011;47005;52.292;13.452;2023-01-24T08:13:26;29.80;;;15.53;;
21611;SDS011;47005;52.292;13.452;2023-01-24T08:15:52;37.20;;;15.37;;
21611;SDS011;47005;52.292;13.452;2023-01-24T08:18:18;38.00;;;18.10;;
21611;SDS011;47005;52.292;13.452;2023-01-24T08:20:44;32.70;;;15.30;;
21611;SDS011;47005;52.292;13.452;2023-01-24T08:23:09;41.37;;;16.93;;
21611;SDS011;47005;52.292;13.452;2023-01-24T08:25:35;36.00;;;16.90;;
21611;SDS011;47005;52.292;13.452;2023-01-24T08:28:01;36.43;;;18.17;;
21611;SDS011;47005;52.292;13.452;2023-01-24T08:30:26;41.63;;;18.10;;
21611;SDS011;47005;52.292;13.452;2023-01-24T08:32:59;46.90;;;18.07;;
21611;SDS011;47005;52.292;13.452;2023-01-24T08:35:29;30.93;;;16.60;;
21611;SDS011;47005;52.292;13.452;2023-01-24T08:37:55;29.93;;;16.40;;
21611;SDS011;47005;52.292;13.452;2023-01-24T08:40:21;40.30;;;18.03;;
21611;SDS011;47005;52.292;13.452;2023-01-24T08:42:47;36.77;;;17.90;;
21611;SDS011;47005;52.292;13.452;2023-01-24T08:45:12;38.63;;;16.40;;
21611;SDS011;47005;52.292;13.452;2023-01-24T08:47:38;34.63;;;18.37;;
21611;SDS011;47005;52.292;13.452;2023-01-24T08:50:04;32.93;;;16.33;;
21611;SDS011;47005;52.292;13.452;2023-01-24T08:52:29;35.77;;;16.90;;
21611;SDS011;47005;52.292;13.452;2023-01-24T08:54:55;40.27;;;15.77;;
21611;SDS011;47005;52.292;13.452;2023-01-24T08:57:21;42.27;;;21.17;;
21611;SDS011;47005;52.292;13.452;2023-01-24T08:59:46;43.17;;;19.30;;
21611;SDS011;47005;52.292;13.452;2023-01-24T09:02:12;41.70;;;20.03;;
21611;SDS011;47005;52.292;13.452;2023-01-24T09:04:39;45.60;;;18.93;;
21611;SDS011;47005;52.292;13.452;2023-01-24T09:07:04;42.23;;;17.87;;
21611;SDS011;47005;52.292;13.452;2023-01-24T09:09:30;37.27;;;18.27;;
21611;SDS011;47005;52.292;13.452;2023-01-24T09:11:56;43.77;;;18.33;;
21611;SDS011;47005;52.292;13.452;2023-01-24T09:14:21;41.63;;;20.23;;
21611;SDS011;47005;52.292;13.452;2023-01-24T09:16:47;36.87;;;18.93;;
21611;SDS011;47005;52.292;13.452;2023-01-24T09:19:13;37.57;;;19.97;;
21611;SDS011;47005;52.292;13.452;2023-01-24T09:21:38;51.20;;;23.93;;
21611;SDS011;47005;52.292;13.452;2023-01-24T09:24:04;46.43;;;21.07;;
21611;SDS011;47005;52.292;13.452;2023-01-24T09:26:30;39.03;;;19.27;;
21611;SDS011;47005;52.292;13.452;2023-01-24T09:28:56;40.07;;;18.37;;
21611;SDS011;47005;52.292;13.452;2023-01-24T09:31:21;50.63;;;19.73;;
21611;SDS011;47005;52.292;13.452;2023-01-24T09:33:47;40.03;;;20.57;;
21611;SDS011;47005;52.292;13.452;2023-01-24T09:36:13;48.17;;;20.07;;
21611;SDS011;47005;52.292;13.452;2023-01-24T09:38:38;43.77;;;19.40;;
21611;SDS011;47005;52.292;13.452;2023-01-24T09:44:10;43.43;;;18.97;;
21611;SDS011;47005;52.292;13.452;2023-01-24T09:46:46;36.17;;;18.20;;
21611;SDS011;47005;52.292;13.452;2023-01-24T09:49:36;38.33;;;18.83;;
21611;SDS011;47005;52.292;13.452;2023-01-24T09:52:14;37.37;;;18.13;;
21611;SDS011;47005;52.292;13.452;2023-01-24T09:54:58;41.23;;;17.00;;
21611;SDS011;47005;52.292;13.452;2023-01-24T09:57:43;40.23;;;18.10;;
21611;SDS011;47005;52.292;13.452;2023-01-24T10:00:36;39.73;;;19.00;;
21611;SDS011;47005;52.292;13.452;2023-01-24T10:03:08;49.67;;;21.33;;
21611;SDS011;47005;52.292;13.452;2023-01-24T10:05:46;40.77;;;20.47;;
21611;SDS011;47005;52.292;13.452;2023-01-24T10:10:52;39.80;;;18.33;;
21611;SDS011;47005;52.292;13.452;2023-01-24T10:19:42;46.60;;;20.13;;
21611;SDS011;47005;52.292;13.452;2023-01-24T10:25:27;38.40;;;19.73;;
21611;SDS011;47005;52.292;13.452;2023-01-24T10:28:00;41.60;;;19.77;;
21611;SDS011;47005;52.292;13.452;2023-01-24T10:30:39;39.00;;;19.20;;
21611;SDS011;47005;52.292;13.452;2023-01-24T10:33:14;39.57;;;19.10;;
21611;SDS011;47005;52.292;13.452;2023-01-24T10:35:53;41.67;;;18.60;;
21611;SDS011;47005;52.292;13.452;2023-01-24T10:38:21;38.93;;;19.33;;
21611;SDS011;47005;52.292;13.452;2023-01-24T10:40:48;34.23;;;17.00;;
21611;SDS011;47005;52.292;13.452;2023-01-24T10:43:19;36.20;;;18.97;;
21611;SDS011;47005;52.292;13.452;2023-01-24T10:46:14;39.53;;;18.13;;
21611;SDS011;47005;52.292;13.452;2023-01-24T10:48:46;33.77;;;16.30;;
21611;SDS011;47005;52.292;13.452;2023-01-24T10:51:20;38.97;;;19.10;;
21611;SDS011;47005;52.292;13.452;2023-01-24T10:53:47;46.70;;;19.67;;
21611;SDS011;47005;52.292;13.452;2023-01-24T10:56:14;31.70;;;18.90;;
21611;SDS011;47005;52.292;13.452;2023-01-24T10:58:55;36.13;;;19.93;;
21611;SDS011;47005;52.292;13.452;2023-01-24T11:01:32;36.30;;;17.07;;
21611;SDS011;47005;52.292;13.452;2023-01-24T11:04:11;42.57;;;19.00;;
21611;SDS011;47005;52.292;13.452;2023-01-24T11:06:44;42.03;;;17.73;;
21611;SDS011;47005;52.292;13.452;2023-01-24T11:09:16;35.13;;;17.77;;
21611;SDS011;47005;52.292;13.452;2023-01-24T11:11:54;35.17;;;17.80;;
21611;SDS011;47005;52.292;13.452;2023-01-24T11:14:25;33.03;;;17.60;;
21611;SDS011;47005;52.292;13.452;2023-01-24T11:16:58;30.60;;;17.10;;
21611;SDS011;47005;52.292;13.452;2023-01-24T11:22:22;35.50;;;17.00;;
21611;SDS011;47005;52.292;13.452;2023-01-24T11:24:59;31.80;;;17.13;;
21611;SDS011;47005;52.292;13.452;2023-01-24T11:27:25;33.53;;;17.97;;
21611;SDS011;47005;52.292;13.452;2023-01-24T11:30:37;32.87;;;18.87;;
21611;SDS011;47005;52.292;13.452;2023-01-24T11:32:41;32.83;;;17.83;;
21611;SDS011;47005;52.292;13.452;2023-01-24T11:35:24;37.20;;;17.30;;
21611;SDS011;47005;52.292;13.452;2023-01-24T11:37:58;31.90;;;16.80;;
21611;SDS011;47005;52.292;13.452;2023-01-24T11:40:41;35.23;;;16.83;;
21611;SDS011;47005;52.292;13.452;2023-01-24T11:48:56;36.23;;;17.67;;
21611;SDS011;47005;52.292;13.452;2023-01-24T11:54:29;31.50;;;16.33;;
21611;SDS011;47005;52.292;13.452;2023-01-24T11:57:08;31.87;;;19.10;;
21611;SDS011;47005;52.292;13.452;2023-01-24T12:02:37;34.20;;;20.33;;
21611;SDS011;47005;52.292;13.452;2023-01-24T12:10:44;33.03;;;17.57;;
21611;SDS011;47005;52.292;13.452;2023-01-24T12:13:39;33.00;;;17.50;;
21611;SDS011;47005;52.292;13.452;2023-01-24T12:16:21;33.07;;;17.77;;
21611;SDS011;47005;52.292;13.452;2023-01-24T12:21:56;33.37;;;16.80;;
21611;SDS011;47005;52.292;13.452;2023-01-24T12:24:26;33.77;;;18.03;;
21611;SDS011;47005;52.292;13.452;2023-01-24T12:27:05;29.57;;;17.63;;
21611;SDS011;47005;52.292;13.452;2023-01-24T12:29:42;35.63;;;18.13;;
21611;SDS011;47005;52.292;13.452;2023-01-24T12:32:14;26.50;;;16.60;;
21611;SDS011;47005;52.292;13.452;2023-01-24T12:37:38;26.00;;;15.80;;
21611;SDS011;47005;52.292;13.452;2023-01-24T12:40:18;36.00;;;17.50;;
21611;SDS011;47005;52.292;13.452;2023-01-24T12:48:14;28.00;;;16.67;;
21611;SDS011;47005;52.292;13.452;2023-01-24T12:56:00;32.63;;;16.03;;
21611;SDS011;47005;52.292;13.452;2023-01-24T12:58:35;24.07;;;16.47;;
21611;SDS011;47005;52.292;13.452;2023-01-24T13:09:10;30.67;;;16.67;;
21611;SDS011;47005;52.292;13.452;2023-01-24T13:11:46;28.57;;;16.77;;
21611;SDS011;47005;52.292;13.452;2023-01-24T13:14:18;28.80;;;16.33;;
21611;SDS011;47005;52.292;13.452;2023-01-24T13:16:57;30.63;;;16.60;;
21611;SDS011;47005;52.292;13.452;2023-01-24T13:22:23;24.53;;;15.97;;
21611;SDS011;47005;52.292;13.452;2023-01-24T13:27:50;27.07;;;17.43;;
21611;SDS011;47005;52.292;13.452;2023-01-24T13:32:50;28.37;;;16.13;;
21611;SDS011;47005;52.292;13.452;2023-01-24T13:35:22;26.60;;;16.90;;
21611;SDS011;47005;52.292;13.452;2023-01-24T13:37:50;30.37;;;17.53;;
21611;SDS011;47005;52.292;13.452;2023-01-24T13:40:27;43.70;;;21.93;;
21611;SDS011;47005;52.292;13.452;2023-01-24T13:42:55;32.00;;;18.30;;
21611;SDS011;47005;52.292;13.452;2023-01-24T13:47:48;29.57;;;17.27;;
21611;SDS011;47005;52.292;13.452;2023-01-24T13:50:22;27.03;;;17.57;;
21611;SDS011;47005;52.292;13.452;2023-01-24T13:52:52;26.07;;;14.97;;
21611;SDS011;47005;52.292;13.452;2023-01-24T13:57:45;31.77;;;17.93;;
21611;SDS011;47005;52.292;13.452;2023-01-24T14:07:57;28.60;;;16.80;;
21611;SDS011;47005;52.292;13.452;2023-01-24T14:10:36;27.27;;;17.03;;
21611;SDS011;47005;52.292;13.452;2023-01-24T14:16:13;36.27;;;18.97;;
21611;SDS011;47005;52.292;13.452;2023-01-24T14:19:04;34.57;;;15.90;;
21611;SDS011;47005;52.292;13.452;2023-01-24T14:21:50;28.80;;;17.37;;
21611;SDS011;47005;52.292;13.452;2023-01-24T14:27:27;32.17;;;17.50;;
21611;SDS011;47005;52.292;13.452;2023-01-24T14:30:00;28.80;;;17.40;;
21611;SDS011;47005;52.292;13.452;2023-01-24T14:32:43;29.63;;;16.57;;
21611;SDS011;47005;52.292;13.452;2023-01-24T14:37:41;37.67;;;18.37;;
21611;SDS011;47005;52.292;13.452;2023-01-24T14:42:41;39.27;;;19.73;;
21611;SDS011;47005;52.292;13.452;2023-01-24T14:45:12;31.80;;;19.13;;
21611;SDS011;47005;52.292;13.452;2023-01-24T14:47:49;31.40;;;20.13;;
21611;SDS011;47005;52.292;13.452;2023-01-24T14:50:23;30.23;;;18.87;;
21611;SDS011;47005;52.292;13.452;2023-01-24T14:52:51;31.27;;;17.53;;
21611;SDS011;47005;52.292;13.452;2023-01-24T14:57:52;30.03;;;18.20;;
21611;SDS011;47005;52.292;13.452;2023-01-24T15:00:19;28.30;;;16.50;;
21611;SDS011;47005;52.292;13.452;2023-01-24T15:05:31;44.10;;;19.80;;
21611;SDS011;47005;52.292;13.452;2023-01-24T15:08:00;37.07;;;20.73;;
21611;SDS011;47005;52.292;13.452;2023-01-24T15:10:28;28.93;;;19.63;;
21611;SDS011;47005;52.292;13.452;2023-01-24T15:13:09;27.27;;;18.13;;
21611;SDS011;47005;52.292;13.452;2023-01-24T15:15:49;32.30;;;20.67;;
21611;SDS011;47005;52.292;13.452;2023-01-24T15:18:35;35.33;;;18.87;;
21611;SDS011;47005;52.292;13.452;2023-01-24T15:21:01;39.30;;;20.90;;
21611;SDS011;47005;52.292;13.452;2023-01-24T15:23:28;30.30;;;18.60;;
21611;SDS011;47005;52.292;13.452;2023-01-24T15:25:56;34.33;;;20.00;;
21611;SDS011;47005;52.292;13.452;2023-01-24T15:28:29;34.90;;;20.37;;
21611;SDS011;47005;52.292;13.452;2023-01-24T15:30:56;35.90;;;18.87;;
21611;SDS011;47005;52.292;13.452;2023-01-24T15:33:52;32.93;;;19.67;;
21611;SDS011;47005;52.292;13.452;2023-01-24T15:36:25;36.03;;;19.53;;
21611;SDS011;47005;52.292;13.452;2023-01-24T15:38:53;36.27;;;19.43;;
21611;SDS011;47005;52.292;13.452;2023-01-24T15:41:28;34.43;;;19.53;;
21611;SDS011;47005;52.292;13.452;2023-01-24T15:44:18;35.00;;;20.27;;
21611;SDS011;47005;52.292;13.452;2023-01-24T15:46:43;34.63;;;20.67;;
21611;SDS011;47005;52.292;13.452;2023-01-24T15:49:35;37.07;;;20.50;;
21611;SDS011;47005;52.292;13.452;2023-01-24T15:54:30;33.67;;;18.73;;
21611;SDS011;47005;52.292;13.452;2023-01-24T15:56:57;34.37;;;19.53;;
21611;SDS011;47005;52.292;13.452;2023-01-24T15:59:25;37.00;;;18.47;;
21611;SDS011;47005;52.292;13.452;2023-01-24T16:01:51;31.87;;;21.47;;
21611;SDS011;47005;52.292;13.452;2023-01-24T16:04:18;35.37;;;20.00;;
21611;SDS011;47005;52.292;13.452;2023-01-24T16:06:45;37.67;;;20.10;;
21611;SDS011;47005;52.292;13.452;2023-01-24T16:09:11;34.97;;;17.90;;
21611;SDS011;47005;52.292;13.452;2023-01-24T16:11:38;31.00;;;18.87;;
21611;SDS011;47005;52.292;13.452;2023-01-24T16:14:07;33.23;;;17.80;;
21611;SDS011;47005;52.292;13.452;2023-01-24T16:16:38;32.07;;;18.47;;
21611;SDS011;47005;52.292;13.452;2023-01-24T16:19:14;31.17;;;17.77;;